createdAt,value
2022-08-31T00:00:17.157Z,158
2022-08-31T00:05:17.180Z,158
2022-08-31T00:10:20.293Z,135
2022-08-31T00:15:17.213Z,158
2022-08-31T00:20:32.764Z,158
2022-08-31T00:25:20.115Z,135
2022-08-31T00:30:20.147Z,158
2022-08-31T00:35:20.149Z,158
2022-08-31T00:40:17.253Z,158
2022-08-31T00:45:20.353Z,158
2022-08-31T00:50:20.213Z,158
2022-08-31T00:55:20.175Z,158
2022-08-31T01:00:20.196Z,158
2022-08-31T01:05:20.197Z,135
2022-08-31T01:10:20.258Z,158
2022-08-31T01:15:20.147Z,135
2022-08-31T01:20:20.195Z,135
2022-08-31T01:25:17.187Z,158
2022-08-31T01:30:17.233Z,158
2022-08-31T01:35:20.196Z,158
2022-08-31T01:40:20.332Z,158
2022-08-31T01:45:20.189Z,135
2022-08-31T01:50:20.251Z,158
2022-08-31T01:55:17.363Z,135
2022-08-31T02:00:17.203Z,180
2022-08-31T02:05:20.204Z,135
2022-08-31T02:10:17.211Z,158
2022-08-31T02:15:20.247Z,135
2022-08-31T02:20:20.310Z,158
2022-08-31T02:25:20.221Z,158
2022-08-31T02:30:20.159Z,135
2022-08-31T02:35:20.210Z,158
2022-08-31T02:40:20.291Z,158
2022-08-31T02:45:20.246Z,158
2022-08-31T02:50:20.218Z,135
2022-08-31T02:55:20.175Z,135
2022-08-31T03:00:17.278Z,158
2022-08-31T03:05:17.280Z,158
2022-08-31T03:10:20.304Z,180
2022-08-31T03:15:20.226Z,158
2022-08-31T03:20:17.246Z,158
2022-08-31T03:25:17.249Z,158
2022-08-31T03:30:17.227Z,135
2022-08-31T03:35:20.435Z,135
2022-08-31T03:40:20.374Z,158
2022-08-31T03:45:20.289Z,135
2022-08-31T03:50:20.245Z,158
2022-08-31T03:55:17.288Z,158
2022-08-31T04:00:19.491Z,158
2022-08-31T04:05:16.563Z,158
2022-08-31T04:10:19.657Z,158
2022-08-31T04:15:19.483Z,180
2022-08-31T04:20:19.524Z,225
2022-08-31T04:25:16.534Z,225
2022-08-31T04:30:19.620Z,135
2022-08-31T04:35:16.552Z,135
2022-08-31T04:40:19.710Z,135
2022-08-31T04:45:16.627Z,225
2022-08-31T04:50:19.522Z,225
2022-08-31T04:55:19.502Z,135
2022-08-31T05:00:19.522Z,135
2022-08-31T05:05:19.540Z,135
2022-08-31T05:10:16.567Z,158
2022-08-31T05:15:19.747Z,135
2022-08-31T05:20:19.538Z,135
2022-08-31T05:25:16.573Z,202
2022-08-31T05:30:16.592Z,158
2022-08-31T05:35:19.608Z,225
2022-08-31T05:40:19.566Z,158
2022-08-31T05:45:16.571Z,135
2022-08-31T05:50:19.717Z,202
2022-08-31T05:55:19.529Z,135
2022-08-31T06:00:19.516Z,180
2022-08-31T06:05:19.569Z,158
2022-08-31T06:10:19.560Z,158
2022-08-31T06:15:19.571Z,158
2022-08-31T06:20:17.885Z,158
2022-08-31T06:25:19.749Z,158
2022-08-31T06:30:19.634Z,135
2022-08-31T06:35:19.575Z,180
2022-08-31T06:40:16.577Z,135
2022-08-31T06:45:19.622Z,135
2022-08-31T06:50:16.595Z,135
2022-08-31T06:55:19.560Z,135
2022-08-31T07:00:19.732Z,158
2022-08-31T07:05:19.830Z,135
2022-08-31T07:10:19.608Z,135
2022-08-31T07:15:19.570Z,158
2022-08-31T07:20:16.385Z,158
2022-08-31T07:25:16.571Z,158
2022-08-31T07:30:16.612Z,158
2022-08-31T07:35:16.701Z,158
2022-08-31T07:40:19.772Z,158
2022-08-31T07:45:16.621Z,158
2022-08-31T07:50:19.627Z,158
2022-08-31T07:55:19.601Z,158
2022-08-31T08:00:16.606Z,158
2022-08-31T08:05:16.631Z,135
2022-08-31T08:10:19.792Z,158
2022-08-31T08:15:19.582Z,135
2022-08-31T08:20:21.783Z,135
2022-08-31T08:25:16.773Z,158
2022-08-31T08:30:16.613Z,135
2022-08-31T08:35:19.705Z,135
2022-08-31T08:40:19.688Z,158
2022-08-31T08:45:16.860Z,135
2022-08-31T08:50:19.735Z,135
2022-08-31T08:55:19.599Z,135
2022-08-31T09:00:16.640Z,135
2022-08-31T09:05:19.671Z,135
2022-08-31T09:15:16.708Z,202
2022-08-31T09:20:16.738Z,225
2022-08-31T09:25:16.695Z,135
2022-08-31T09:30:19.641Z,135
2022-08-31T09:35:19.613Z,180
2022-08-31T09:40:16.739Z,135
2022-08-31T09:45:16.663Z,135
2022-08-31T09:50:19.781Z,135
2022-08-31T09:55:16.609Z,158
2022-08-31T10:00:19.636Z,135
2022-08-31T10:05:16.749Z,158
2022-08-31T10:10:30.242Z,135
2022-08-31T10:15:19.646Z,225
2022-08-31T10:20:16.677Z,225
2022-08-31T10:25:16.754Z,225
2022-08-31T10:30:19.688Z,248
2022-08-31T10:35:16.572Z,90
2022-08-31T10:45:19.762Z,315
2022-08-31T10:55:19.809Z,225
2022-08-31T11:00:19.673Z,225
2022-08-31T11:05:16.761Z,315
2022-08-31T11:10:19.687Z,315
2022-08-31T11:15:16.710Z,292
2022-08-31T11:20:19.678Z,292
2022-08-31T11:25:19.670Z,292
2022-08-31T11:30:19.884Z,225
2022-08-31T11:35:19.677Z,292
2022-08-31T11:40:19.674Z,248
2022-08-31T11:45:19.708Z,270
2022-08-31T11:50:19.676Z,292
2022-08-31T11:55:16.734Z,270
2022-08-31T12:00:16.732Z,248
2022-08-31T12:05:20.006Z,248
2022-08-31T12:10:16.777Z,292
2022-08-31T12:15:19.704Z,270
2022-08-31T12:20:16.789Z,292
2022-08-31T12:25:19.709Z,270
2022-08-31T12:30:19.697Z,292
2022-08-31T12:35:19.679Z,292
2022-08-31T12:40:16.929Z,270
2022-08-31T12:45:16.721Z,270
2022-08-31T12:50:19.919Z,270
2022-08-31T12:55:16.888Z,248
2022-08-31T13:00:19.738Z,292
2022-08-31T13:05:19.705Z,292
2022-08-31T13:10:19.943Z,225
2022-08-31T13:15:16.775Z,225
2022-08-31T13:20:16.725Z,270
2022-08-31T13:25:19.745Z,225
2022-08-31T13:30:19.803Z,225
2022-08-31T13:35:19.707Z,225
2022-08-31T13:40:19.774Z,225
2022-08-31T13:45:19.838Z,225
2022-08-31T13:50:21.652Z,202
2022-08-31T13:55:16.768Z,225
2022-08-31T14:00:19.733Z,225
2022-08-31T14:05:19.784Z,225
2022-08-31T14:10:16.760Z,225
2022-08-31T14:15:16.743Z,248
2022-08-31T14:20:19.973Z,225
2022-08-31T14:25:19.731Z,292
2022-08-31T14:30:16.666Z,225
2022-08-31T14:35:19.775Z,270
2022-08-31T14:40:19.798Z,270
2022-08-31T14:45:20.562Z,225
2022-08-31T14:50:16.754Z,225
2022-08-31T14:55:16.987Z,225
2022-08-31T15:00:19.751Z,315
2022-08-31T15:05:19.763Z,225
2022-08-31T15:10:16.799Z,225
2022-08-31T15:15:16.774Z,225
2022-08-31T15:20:16.905Z,225
2022-08-31T15:25:19.974Z,225
2022-08-31T15:30:20.163Z,225
2022-08-31T15:35:16.844Z,202
2022-08-31T15:40:19.842Z,225
2022-08-31T15:45:16.769Z,225
2022-08-31T15:50:16.825Z,225
2022-08-31T15:55:19.772Z,202
2022-08-31T16:00:19.978Z,225
2022-08-31T16:05:19.783Z,225
2022-08-31T16:10:20.515Z,225
2022-08-31T16:15:23.383Z,225
2022-08-31T16:20:19.825Z,225
2022-08-31T16:25:20.422Z,202
2022-08-31T16:30:16.823Z,225
2022-08-31T16:35:19.985Z,202
2022-08-31T16:40:19.898Z,202
2022-08-31T16:45:19.854Z,270
2022-08-31T16:50:19.933Z,225
2022-08-31T16:55:19.811Z,225
2022-08-31T17:00:19.845Z,225
2022-08-31T17:05:19.775Z,225
2022-08-31T17:10:19.905Z,202
2022-08-31T17:15:19.799Z,292
2022-08-31T17:20:19.793Z,225
2022-08-31T17:25:16.844Z,225
2022-08-31T17:30:16.830Z,225
2022-08-31T17:35:16.844Z,225
2022-08-31T17:40:19.886Z,270
2022-08-31T17:45:19.928Z,225
2022-08-31T17:50:20.007Z,225
2022-08-31T17:55:16.882Z,225
2022-08-31T18:00:19.839Z,225
2022-08-31T18:05:19.805Z,202
2022-08-31T18:10:19.799Z,225
2022-08-31T18:15:16.863Z,225
2022-08-31T18:20:20.082Z,202
2022-08-31T18:25:19.839Z,202
2022-08-31T18:30:19.806Z,202
2022-08-31T18:35:19.882Z,225
2022-08-31T18:40:16.922Z,225
2022-08-31T18:45:20.081Z,225
2022-08-31T18:50:19.885Z,225
2022-08-31T18:55:19.949Z,225
2022-08-31T19:00:19.865Z,225
2022-08-31T19:05:17.401Z,225
2022-08-31T19:10:19.872Z,202
2022-08-31T19:15:19.838Z,202
2022-08-31T19:20:19.913Z,225
2022-08-31T19:25:19.856Z,248
2022-08-31T19:30:22.299Z,270
2022-08-31T19:35:19.868Z,225
2022-08-31T19:40:17.709Z,225
2022-08-31T19:45:24.551Z,225
2022-08-31T19:50:19.992Z,225
2022-08-31T19:55:19.885Z,202
2022-08-31T20:00:19.859Z,225
2022-08-31T20:05:20.074Z,225
2022-08-31T20:10:19.851Z,225
2022-08-31T20:15:19.882Z,225
2022-08-31T20:20:19.865Z,292
2022-08-31T20:25:19.097Z,292
2022-08-31T20:30:16.925Z,225
2022-08-31T20:35:19.880Z,225
2022-08-31T20:40:17.380Z,225
2022-08-31T20:45:16.914Z,225
2022-08-31T20:50:19.953Z,202
2022-08-31T20:55:19.875Z,225
2022-08-31T21:00:19.924Z,225
2022-08-31T21:05:38.243Z,225
2022-08-31T21:10:26.094Z,225
2022-08-31T21:15:19.925Z,225
2022-08-31T21:20:19.924Z,225
2022-08-31T21:25:19.906Z,225
2022-08-31T21:30:16.930Z,225
2022-08-31T21:35:19.934Z,225
2022-08-31T21:40:20.006Z,225
2022-08-31T21:45:19.990Z,225
2022-08-31T21:50:19.904Z,248
2022-08-31T21:55:16.937Z,225
2022-08-31T22:00:22.150Z,225
2022-08-31T22:05:16.928Z,225
2022-08-31T22:10:19.967Z,225
2022-08-31T22:15:19.954Z,225
2022-08-31T22:20:20.139Z,225
2022-08-31T22:25:19.919Z,225
2022-08-31T22:30:19.931Z,225
2022-08-31T22:35:16.989Z,225
2022-08-31T22:40:20.076Z,225
2022-08-31T22:45:19.964Z,225
2022-08-31T22:50:19.950Z,225
2022-08-31T22:55:20.006Z,225
2022-08-31T23:00:16.978Z,225
2022-08-31T23:05:20.022Z,248
2022-08-31T23:10:16.963Z,225
2022-08-31T23:15:16.999Z,248
2022-08-31T23:20:19.989Z,248
2022-08-31T23:25:19.995Z,225
2022-08-31T23:30:17.058Z,225
2022-08-31T23:35:19.983Z,225
2022-08-31T23:40:20.022Z,202
2022-08-31T23:45:17.009Z,225
2022-08-31T23:50:17.058Z,225
2022-08-31T23:55:17.009Z,202
